createdAt,value
2018-11-14T00:00:12.527Z,101383.17
2018-11-14T00:02:46.034Z,101382.30
2018-11-14T00:05:19.519Z,101380.06
2018-11-14T00:07:53.407Z,101382.93
2018-11-14T00:10:26.386Z,101375.85
2018-11-14T00:12:59.160Z,101379.33
2018-11-14T00:15:35.890Z,101371.02
2018-11-14T00:18:08.641Z,101371.59
2018-11-14T00:20:42.445Z,101373.28
2018-11-14T00:23:19.071Z,101377.86
2018-11-14T00:25:53.046Z,101374.98
2018-11-14T00:28:26.197Z,101377.98
2018-11-14T00:31:00.626Z,101383.31
2018-11-14T00:33:34.256Z,101381.12
2018-11-14T00:36:07.319Z,101379.17
2018-11-14T00:38:40.231Z,101377.95
2018-11-14T00:41:12.774Z,101378.61
2018-11-14T00:43:45.304Z,101369.56
2018-11-14T00:46:19.213Z,101367.10
2018-11-14T00:48:51.780Z,101368.88
2018-11-14T00:51:25.614Z,101366.57
2018-11-14T00:53:58.676Z,101356.95
2018-11-14T00:56:32.172Z,101350.02
2018-11-14T00:59:06.220Z,101350.18
2018-11-14T01:01:40.021Z,101348.72
2018-11-14T01:04:12.917Z,101356.03
2018-11-14T01:06:45.581Z,101354.66
2018-11-14T01:09:20.991Z,101351.56
2018-11-14T01:11:54.582Z,101352.88
2018-11-14T01:14:27.289Z,101358.92
2018-11-14T01:17:00.088Z,101360.11
2018-11-14T01:19:32.864Z,101360.23
2018-11-14T01:22:08.146Z,101360.34
2018-11-14T01:24:40.966Z,101368.76
2018-11-14T01:27:13.586Z,101362.28
2018-11-14T01:29:46.737Z,101357.09
2018-11-14T01:32:20.266Z,101358.45
2018-11-14T01:34:55.473Z,101355.41
2018-11-14T01:37:28.381Z,101352.30
2018-11-14T01:40:00.967Z,101359.91
2018-11-14T01:42:34.323Z,101368.19
2018-11-14T01:45:10.463Z,101369.09
2018-11-14T01:47:45.540Z,101370.22
2018-11-14T01:50:19.680Z,101367.31
2018-11-14T01:52:52.233Z,101370.88
2018-11-14T01:55:24.762Z,101373.20
2018-11-14T01:58:02.426Z,101369.77
2018-11-14T02:00:35.180Z,101370.81
2018-11-14T02:03:07.892Z,101377.35
2018-11-14T02:05:41.287Z,101370.52
2018-11-14T02:08:13.777Z,101366.22
2018-11-14T02:10:51.261Z,101373.16
2018-11-14T02:13:24.236Z,101369.74
2018-11-14T02:15:56.765Z,101371.08
2018-11-14T02:18:30.954Z,101372.47
2018-11-14T02:21:03.913Z,101380.07
2018-11-14T02:23:36.781Z,101375.35
2018-11-14T02:26:09.431Z,101374.80
2018-11-14T02:28:43.446Z,101375.38
2018-11-14T02:31:16.286Z,101373.34
2018-11-14T02:33:49.234Z,101369.79
2018-11-14T02:36:22.187Z,101365.78
2018-11-14T02:38:54.859Z,101366.78
2018-11-14T02:41:27.370Z,101365.90
2018-11-14T02:44:00.302Z,101364.48
2018-11-14T02:46:34.192Z,101352.23
2018-11-14T02:49:07.568Z,101349.70
2018-11-14T02:51:41.412Z,101354.47
2018-11-14T02:54:13.959Z,101357.34
2018-11-14T02:56:48.373Z,101354.86
2018-11-14T02:59:21.365Z,101343.72
2018-11-14T03:01:53.885Z,101344.63
2018-11-14T03:04:27.750Z,101334.13
2018-11-14T03:07:00.936Z,101335.37
2018-11-14T03:09:34.017Z,101331.84
2018-11-14T03:12:09.586Z,101329.30
2018-11-14T03:14:42.788Z,101329.95
2018-11-14T03:17:15.913Z,101326.47
2018-11-14T03:19:48.534Z,101329.13
2018-11-14T03:22:23.966Z,101331.59
2018-11-14T03:24:57.330Z,101336.49
2018-11-14T03:27:29.923Z,101338.60
2018-11-14T03:30:06.377Z,101338.03
2018-11-14T03:32:39.553Z,101339.48
2018-11-14T03:35:12.939Z,101335.59
2018-11-14T03:37:45.776Z,101332.37
2018-11-14T03:40:18.319Z,101331.25
2018-11-14T03:42:50.928Z,101325.91
2018-11-14T03:45:23.950Z,101320.39
2018-11-14T03:47:56.476Z,101320.22
2018-11-14T03:50:29.128Z,101322.73
2018-11-14T03:53:03.310Z,101316.85
2018-11-14T03:55:37.277Z,101314.52
2018-11-14T03:58:09.864Z,101306.92
2018-11-14T04:00:42.925Z,101315.95
2018-11-14T04:03:15.665Z,101311.84
2018-11-14T04:05:48.492Z,101311.16
2018-11-14T04:08:21.693Z,101315.86
2018-11-14T04:10:54.198Z,101322.69
2018-11-14T04:13:27.613Z,101322.58
2018-11-14T04:16:01.307Z,101324.92
2018-11-14T04:18:34.026Z,101319.77
2018-11-14T04:21:06.999Z,101321.18
2018-11-14T04:23:55.913Z,101313.35
2018-11-14T04:26:28.455Z,101317.43
2018-11-14T04:29:01.135Z,101306.83
2018-11-14T04:31:34.130Z,101300.17
2018-11-14T04:34:08.779Z,101295.84
2018-11-14T04:36:42.053Z,101300.38
2018-11-14T04:39:15.171Z,101293.12
2018-11-14T04:41:47.837Z,101290.66
2018-11-14T04:44:20.453Z,101284.19
2018-11-14T04:46:53.365Z,101278.45
2018-11-14T04:49:26.042Z,101282.22
2018-11-14T04:52:00.312Z,101274.34
2018-11-14T04:54:36.245Z,101275.95
2018-11-14T04:57:09.489Z,101269.10
2018-11-14T04:59:42.504Z,101270.63
2018-11-14T05:02:16.711Z,101274.63
2018-11-14T05:04:50.749Z,101273.72
2018-11-14T05:07:23.449Z,101278.47
2018-11-14T05:09:56.257Z,101275.17
2018-11-14T05:12:30.342Z,101276.60
2018-11-14T05:15:04.873Z,101280.52
2018-11-14T05:17:38.990Z,101279.40
2018-11-14T05:20:13.308Z,101277.63
2018-11-14T05:22:46.162Z,101276.56
2018-11-14T05:25:20.922Z,101280.50
2018-11-14T05:27:53.542Z,101279.66
2018-11-14T05:30:26.186Z,101280.45
2018-11-14T05:33:00.835Z,101282.64
2018-11-14T05:35:33.540Z,101286.61
2018-11-14T05:38:06.531Z,101288.41
2018-11-14T05:40:40.587Z,101289.78
2018-11-14T05:43:16.881Z,101285.88
2018-11-14T05:45:49.958Z,101281.89
2018-11-14T05:48:27.343Z,101282.50
2018-11-14T05:51:01.814Z,101282.38
2018-11-14T05:53:36.743Z,101276.80
2018-11-14T05:56:09.690Z,101278.70
2018-11-14T05:58:42.433Z,101276.47
2018-11-14T06:01:15.047Z,101285.56
2018-11-14T06:03:49.540Z,101285.26
2018-11-14T06:06:24.006Z,101284.05
2018-11-14T06:09:00.562Z,101280.45
2018-11-14T06:11:33.790Z,101277.50
2018-11-14T06:14:07.019Z,101276.78
2018-11-14T06:16:43.658Z,101269.47
2018-11-14T06:19:19.453Z,101270.44
2018-11-14T06:21:52.335Z,101269.35
2018-11-14T06:24:25.074Z,101266.45
2018-11-14T06:27:00.479Z,101274.05
2018-11-14T06:29:33.682Z,101273.23
2018-11-14T06:32:07.069Z,101263.56
2018-11-14T06:34:40.234Z,101262.52
2018-11-14T06:37:12.890Z,101259.09
2018-11-14T06:39:45.601Z,101255.81
2018-11-14T06:42:19.619Z,101267.53
2018-11-14T06:44:53.412Z,101269.63
2018-11-14T06:47:26.329Z,101267.13
2018-11-14T06:49:59.261Z,101268.84
2018-11-14T06:52:33.462Z,101268.30
2018-11-14T06:55:09.164Z,101271.08
2018-11-14T06:57:42.543Z,101274.50
2018-11-14T07:00:23.501Z,101268.38
2018-11-14T07:02:58.142Z,101273.17
2018-11-14T07:05:31.664Z,101277.17
2018-11-14T07:08:05.961Z,101270.36
2018-11-14T07:10:39.157Z,101273.33
2018-11-14T07:13:12.578Z,101272.37
2018-11-14T07:15:49.123Z,101274.75
2018-11-14T07:18:22.858Z,101271.84
2018-11-14T07:20:55.965Z,101277.52
2018-11-14T07:23:29.790Z,101275.77
2018-11-14T07:26:03.351Z,101274.89
2018-11-14T07:28:36.354Z,101275.99
2018-11-14T07:31:11.454Z,101287.55
2018-11-14T07:33:44.147Z,101289.53
2018-11-14T07:36:16.916Z,101302.65
2018-11-14T07:38:52.562Z,101306.72
2018-11-14T07:41:40.353Z,101312.81
2018-11-14T07:44:13.500Z,101316.30
2018-11-14T07:46:50.047Z,101326.08
2018-11-14T07:49:23.315Z,101322.91
2018-11-14T07:55:06.882Z,101330.07
2018-11-14T07:57:42.435Z,101326.14
2018-11-14T08:00:17.030Z,101329.28
2018-11-14T08:02:51.725Z,101327.41
2018-11-14T08:05:24.623Z,101316.05
2018-11-14T08:07:57.865Z,101318.20
2018-11-14T08:10:33.642Z,101319.34
2018-11-14T08:13:08.814Z,101314.27
2018-11-14T08:15:45.224Z,101316.55
2018-11-14T08:18:22.261Z,101319.45
2018-11-14T08:20:57.238Z,101319.79
2018-11-14T08:23:35.706Z,101327.54
2018-11-14T08:26:09.644Z,101324.59
2018-11-14T08:28:44.644Z,101316.88
2018-11-14T08:31:18.671Z,101327.53
2018-11-14T08:33:52.680Z,101329.06
2018-11-14T08:36:26.942Z,101334.00
2018-11-14T08:39:00.680Z,101329.47
2018-11-14T08:41:36.395Z,101330.14
2018-11-14T08:44:10.309Z,101330.80
2018-11-14T08:46:44.725Z,101328.30
2018-11-14T08:49:19.210Z,101328.43
2018-11-14T08:51:54.410Z,101330.57
2018-11-14T08:54:29.331Z,101328.64
2018-11-14T08:57:04.183Z,101323.55
2018-11-14T08:59:37.653Z,101323.08
2018-11-14T09:02:10.215Z,101318.86
2018-11-14T09:04:46.389Z,101314.17
2018-11-14T09:07:20.565Z,101318.90
2018-11-14T09:09:54.405Z,101317.22
2018-11-14T09:12:30.250Z,101320.75
2018-11-14T09:15:09.288Z,101326.20
2018-11-14T09:17:47.397Z,101322.05
2018-11-14T09:20:23.830Z,101323.80
2018-11-14T09:22:56.494Z,101323.98
2018-11-14T09:25:32.281Z,101324.59
2018-11-14T09:28:07.760Z,101317.44
2018-11-14T09:30:44.898Z,101324.18
2018-11-14T09:33:35.886Z,101327.02
2018-11-14T09:36:11.690Z,101331.91
2018-11-14T09:38:52.370Z,101331.73
2018-11-14T09:41:28.593Z,101332.28
2018-11-14T09:44:02.412Z,101331.34
2018-11-14T09:46:35.994Z,101331.29
2018-11-14T09:51:46.136Z,101322.95
2018-11-14T09:54:20.250Z,101318.58
2018-11-14T09:56:54.986Z,101314.03
2018-11-14T09:59:28.016Z,101318.82
2018-11-14T10:02:02.856Z,101308.97
2018-11-14T10:04:38.252Z,101308.95
2018-11-14T10:07:12.440Z,101318.23
2018-11-14T10:09:48.452Z,101311.88
2018-11-14T10:12:28.167Z,101316.08
2018-11-14T10:15:07.398Z,101311.13
2018-11-14T10:17:45.798Z,101302.23
2018-11-14T10:20:23.527Z,101303.88
2018-11-14T10:23:01.850Z,101300.72
2018-11-14T10:25:38.878Z,101296.94
2018-11-14T10:28:11.954Z,101301.90
2018-11-14T10:30:46.172Z,101294.66
2018-11-14T10:33:19.959Z,101293.88
2018-11-14T10:35:55.423Z,101295.55
2018-11-14T10:38:31.022Z,101289.00
2018-11-14T10:41:04.510Z,101292.71
2018-11-14T10:43:42.092Z,101290.67
2018-11-14T10:46:34.204Z,101281.17
2018-11-14T10:49:08.109Z,101280.22
2018-11-14T10:51:48.902Z,101278.45
2018-11-14T10:54:22.955Z,101282.95
2018-11-14T10:56:55.961Z,101274.70
2018-11-14T10:59:33.189Z,101272.52
2018-11-14T11:02:13.437Z,101267.95
2018-11-14T11:04:53.532Z,101265.39
2018-11-14T11:07:33.735Z,101261.52
2018-11-14T11:10:13.498Z,101260.41
2018-11-14T11:12:53.200Z,101252.57
2018-11-14T11:15:50.101Z,101252.28
2018-11-14T11:18:25.723Z,101253.30
2018-11-14T11:21:00.394Z,101250.89
2018-11-14T11:23:34.757Z,101241.55
2018-11-14T11:26:09.906Z,101235.02
2018-11-14T11:28:44.172Z,101233.27
2018-11-14T11:31:20.104Z,101241.33
2018-11-14T11:33:55.756Z,101240.48
2018-11-14T11:36:29.986Z,101240.23
2018-11-14T11:39:10.476Z,101233.19
2018-11-14T11:41:45.242Z,101236.39
2018-11-14T11:44:19.819Z,101231.48
2018-11-14T11:46:55.917Z,101228.77
2018-11-14T11:49:29.315Z,101220.83
2018-11-14T11:52:05.513Z,101220.72
2018-11-14T11:54:38.345Z,101216.37
2018-11-14T11:57:20.615Z,101220.17
2018-11-14T11:59:53.913Z,101218.95
2018-11-14T12:02:28.983Z,101215.70
2018-11-14T12:05:03.637Z,101215.02
2018-11-14T12:07:41.295Z,101219.64
2018-11-14T12:10:15.014Z,101213.92
2018-11-14T12:12:48.256Z,101219.50
2018-11-14T12:15:21.270Z,101212.48
2018-11-14T12:17:56.073Z,101209.00
2018-11-14T12:20:31.545Z,101201.11
2018-11-14T12:23:14.421Z,101190.74
2018-11-14T12:25:56.749Z,101187.05
2018-11-14T12:28:32.380Z,101190.62
2018-11-14T12:31:09.342Z,101189.50
2018-11-14T12:33:44.296Z,101190.86
2018-11-14T12:36:17.992Z,101189.37
2018-11-14T12:38:52.782Z,101182.57
2018-11-14T12:41:28.658Z,101188.41
2018-11-14T12:44:01.280Z,101195.02
2018-11-14T12:46:37.669Z,101192.55
2018-11-14T12:49:10.666Z,101190.35
2018-11-14T12:51:46.736Z,101193.20
2018-11-14T12:54:19.389Z,101190.97
2018-11-14T12:56:54.077Z,101187.42
2018-11-14T12:59:32.338Z,101180.64
2018-11-14T13:02:07.338Z,101169.72
2018-11-14T13:04:44.653Z,101166.81
2018-11-14T13:07:18.453Z,101168.10
2018-11-14T13:09:52.428Z,101169.20
2018-11-14T13:12:30.632Z,101169.44
2018-11-14T13:15:06.533Z,101168.84
2018-11-14T13:17:39.913Z,101173.45
2018-11-14T13:20:17.878Z,101172.50
2018-11-14T13:22:52.721Z,101174.90
2018-11-14T13:25:30.873Z,101169.80
2018-11-14T13:28:06.065Z,101169.09
2018-11-14T13:30:40.082Z,101165.48
2018-11-14T13:33:17.823Z,101167.31
2018-11-14T13:35:58.762Z,101159.42
2018-11-14T13:38:33.738Z,101170.73
2018-11-14T13:41:09.827Z,101165.88
2018-11-14T13:43:46.947Z,101164.75
2018-11-14T13:46:20.283Z,101161.59
2018-11-14T13:48:56.388Z,101166.47
2018-11-14T13:51:34.810Z,101166.56
2018-11-14T13:54:10.681Z,101165.96
2018-11-14T13:56:45.132Z,101166.11
2018-11-14T13:59:19.832Z,101169.92
2018-11-14T14:01:57.443Z,101170.98
2018-11-14T14:04:35.577Z,101172.92
2018-11-14T14:07:10.307Z,101169.27
2018-11-14T14:09:44.807Z,101168.00
2018-11-14T14:12:23.744Z,101162.83
2018-11-14T14:14:57.346Z,101160.20
2018-11-14T14:17:32.959Z,101161.27
2018-11-14T14:20:09.159Z,101154.45
2018-11-14T14:22:52.027Z,101155.20
2018-11-14T14:25:31.008Z,101161.48
2018-11-14T14:28:10.231Z,101156.61
2018-11-14T14:30:47.727Z,101157.07
2018-11-14T14:33:23.140Z,101156.20
2018-11-14T14:36:01.644Z,101156.76
2018-11-14T14:38:38.353Z,101156.14
2018-11-14T14:41:12.346Z,101153.80
2018-11-14T14:43:50.355Z,101150.98
2018-11-14T14:46:26.559Z,101149.73
2018-11-14T14:49:01.516Z,101148.53
2018-11-14T14:51:43.021Z,101150.90
2018-11-14T14:54:26.834Z,101152.68
2018-11-14T14:57:02.404Z,101151.23
2018-11-14T14:59:43.521Z,101145.81
2018-11-14T15:02:19.317Z,101148.25
2018-11-14T15:04:53.718Z,101143.25
2018-11-14T15:07:32.032Z,101138.87
2018-11-14T15:10:18.591Z,101142.13
2018-11-14T15:13:03.377Z,101139.61
2018-11-14T15:15:39.608Z,101140.88
2018-11-14T15:18:18.427Z,101133.72
2018-11-14T15:20:54.738Z,101129.04
2018-11-14T15:23:29.816Z,101122.92
2018-11-14T15:26:08.414Z,101119.62
2018-11-14T15:28:48.139Z,101116.50
2018-11-14T15:31:22.159Z,101116.59
2018-11-14T15:33:59.075Z,101113.99
2018-11-14T15:36:36.605Z,101113.40
2018-11-14T15:39:13.154Z,101115.86
2018-11-14T15:41:51.371Z,101114.30
2018-11-14T15:44:26.627Z,101110.89
2018-11-14T15:47:09.615Z,101112.73
2018-11-14T15:49:42.946Z,101109.38
2018-11-14T15:52:16.747Z,101120.05
2018-11-14T15:54:53.679Z,101112.92
2018-11-14T15:57:27.118Z,101110.86
2018-11-14T16:00:18.412Z,101109.09
2018-11-14T16:02:54.306Z,101108.07
2018-11-14T16:05:33.060Z,101104.39
2018-11-14T16:08:15.676Z,101100.48
2018-11-14T16:10:55.017Z,101097.94
2018-11-14T16:13:30.023Z,101095.85
2018-11-14T16:16:04.855Z,101096.99
2018-11-14T16:18:43.111Z,101093.70
2018-11-14T16:21:18.432Z,101090.45
2018-11-14T16:23:53.761Z,101091.32
2018-11-14T16:26:33.587Z,101089.96
2018-11-14T16:29:10.012Z,101083.70
2018-11-14T16:31:49.228Z,101083.70
2018-11-14T16:34:36.170Z,101090.34
2018-11-14T16:37:09.761Z,101086.98
2018-11-14T16:39:50.536Z,101086.47
2018-11-14T16:42:29.643Z,101091.70
2018-11-14T16:45:13.564Z,101087.94
2018-11-14T16:47:50.055Z,101093.33
2018-11-14T16:50:27.221Z,101089.02
2018-11-14T16:53:08.147Z,101091.67
2018-11-14T16:55:45.396Z,101087.87
2018-11-14T16:58:21.479Z,101082.09
2018-11-14T17:00:55.455Z,101068.33
2018-11-14T17:03:28.170Z,101069.42
2018-11-14T17:06:03.576Z,101067.42
2018-11-14T17:08:39.186Z,101066.41
2018-11-14T17:11:15.862Z,101066.39
2018-11-14T17:13:51.916Z,101066.20
2018-11-14T17:16:29.355Z,101070.45
2018-11-14T17:19:06.992Z,101072.69
2018-11-14T17:21:42.024Z,101073.16
2018-11-14T17:24:20.647Z,101063.84
2018-11-14T17:26:57.017Z,101076.47
2018-11-14T17:29:31.990Z,101067.38
2018-11-14T17:32:07.764Z,101073.10
2018-11-14T17:34:48.948Z,101079.15
2018-11-14T17:37:24.465Z,101068.73
2018-11-14T17:40:01.601Z,101079.97
2018-11-14T17:42:43.559Z,101080.83
2018-11-14T17:45:23.059Z,101078.99
2018-11-14T17:48:00.090Z,101079.30
2018-11-14T17:50:44.537Z,101080.79
2018-11-14T17:53:26.113Z,101085.56
2018-11-14T17:56:04.691Z,101080.46
2018-11-14T17:58:38.694Z,101085.66
2018-11-14T18:01:17.104Z,101084.27
2018-11-14T18:03:54.664Z,101084.73
2018-11-14T18:06:28.797Z,101087.86
2018-11-14T18:09:04.465Z,101076.99
2018-11-14T18:11:40.830Z,101081.30
2018-11-14T18:14:26.529Z,101076.98
2018-11-14T18:17:03.600Z,101081.41
2018-11-14T18:19:41.525Z,101073.74
2018-11-14T18:22:22.354Z,101072.94
2018-11-14T18:25:03.346Z,101074.52
2018-11-14T18:27:39.853Z,101070.77
2018-11-14T18:30:24.783Z,101066.16
2018-11-14T18:33:04.338Z,101066.72
2018-11-14T18:35:43.140Z,101063.95
2018-11-14T18:38:21.678Z,101065.19
2018-11-14T18:41:04.032Z,101063.11
2018-11-14T18:43:39.844Z,101063.98
2018-11-14T18:46:17.235Z,101065.77
2018-11-14T18:48:54.649Z,101068.39
2018-11-14T18:51:32.234Z,101068.39
2018-11-14T18:54:11.531Z,101069.52
2018-11-14T18:56:45.857Z,101072.20
2018-11-14T18:59:22.088Z,101074.17
2018-11-14T19:01:56.425Z,101076.39
2018-11-14T19:04:31.480Z,101064.77
2018-11-14T19:07:08.518Z,101066.19
2018-11-14T19:09:42.490Z,101063.19
2018-11-14T19:12:27.748Z,101061.95
2018-11-14T19:15:16.323Z,101065.95
2018-11-14T19:17:52.123Z,101064.37
2018-11-14T19:20:32.641Z,101063.48
2018-11-14T19:23:07.392Z,101064.48
2018-11-14T19:25:40.989Z,101062.86
2018-11-14T19:28:15.485Z,101065.78
2018-11-14T19:30:53.931Z,101060.34
2018-11-14T19:33:28.737Z,101058.97
2018-11-14T19:36:02.765Z,101063.97
2018-11-14T19:38:39.825Z,101061.05
2018-11-14T19:41:16.670Z,101060.87
2018-11-14T19:43:59.916Z,101048.69
2018-11-14T19:46:34.252Z,101062.64
2018-11-14T19:49:16.927Z,101056.33
2018-11-14T19:51:54.027Z,101053.67
2018-11-14T19:54:31.454Z,101056.55
2018-11-14T19:57:09.072Z,101049.09
2018-11-14T19:59:49.665Z,101046.80
2018-11-14T20:02:27.727Z,101045.14
2018-11-14T20:05:04.778Z,101036.95
2018-11-14T20:07:42.130Z,101039.66
2018-11-14T20:10:18.008Z,101042.80
2018-11-14T20:13:01.551Z,101040.28
2018-11-14T20:15:43.633Z,101041.19
2018-11-14T20:18:24.062Z,101034.42
2018-11-14T20:21:02.807Z,101039.72
2018-11-14T20:23:38.455Z,101040.63
2018-11-14T20:26:12.343Z,101039.30
2018-11-14T20:28:48.451Z,101037.99
2018-11-14T20:31:29.171Z,101036.02
2018-11-14T20:34:06.408Z,101031.70
2018-11-14T20:36:39.690Z,101031.05
2018-11-14T20:39:20.336Z,101027.63
2018-11-14T20:41:55.282Z,101026.14
2018-11-14T20:44:32.523Z,101024.47
2018-11-14T20:47:12.411Z,101025.19
2018-11-14T20:49:46.702Z,101021.73
2018-11-14T20:52:36.537Z,101027.58
2018-11-14T20:55:14.522Z,101025.19
2018-11-14T20:57:49.877Z,101021.85
2018-11-14T21:00:29.250Z,101026.09
2018-11-14T21:03:06.625Z,101024.85
2018-11-14T21:08:37.929Z,101028.29
2018-11-14T21:11:19.637Z,101027.27
2018-11-14T21:13:57.230Z,101023.85
2018-11-14T21:16:30.994Z,101036.80
2018-11-14T21:19:11.505Z,101034.89
2018-11-14T21:21:45.311Z,101033.67
2018-11-14T21:24:21.555Z,101039.32
2018-11-14T21:26:57.513Z,101034.77
2018-11-14T21:29:34.267Z,101030.48
2018-11-14T21:32:09.960Z,101034.62
2018-11-14T21:34:48.272Z,101033.52
2018-11-14T21:37:22.353Z,101033.30
2018-11-14T21:39:56.190Z,101030.89
2018-11-14T21:42:35.706Z,101030.37
2018-11-14T21:45:17.365Z,101030.23
2018-11-14T21:47:57.353Z,101035.56
2018-11-14T21:50:32.764Z,101037.34
2018-11-14T21:53:09.888Z,101033.52
2018-11-14T21:55:44.501Z,101030.36
2018-11-14T21:58:22.532Z,101033.88
2018-11-14T22:00:56.022Z,101033.53
2018-11-14T22:03:31.387Z,101029.39
2018-11-14T22:06:05.169Z,101026.74
2018-11-14T22:08:41.681Z,101023.67
2018-11-14T22:11:15.937Z,101023.86
2018-11-14T22:13:50.167Z,101027.09
2018-11-14T22:16:24.672Z,101028.33
2018-11-14T22:19:01.302Z,101021.86
2018-11-14T22:21:37.087Z,101028.84
2018-11-14T22:24:11.955Z,101027.69
2018-11-14T22:26:45.430Z,101029.50
2018-11-14T22:29:18.382Z,101020.73
2018-11-14T22:31:53.351Z,101024.44
2018-11-14T22:34:29.873Z,101030.24
2018-11-14T22:37:03.512Z,101028.99
2018-11-14T22:39:38.826Z,101028.02
2018-11-14T22:42:16.026Z,101025.41
2018-11-14T22:44:50.207Z,101030.49
2018-11-14T22:47:25.621Z,101030.30
2018-11-14T22:49:59.341Z,101036.09
2018-11-14T22:52:33.295Z,101035.52
2018-11-14T22:55:10.565Z,101037.36
2018-11-14T22:57:45.494Z,101035.80
2018-11-14T23:00:26.899Z,101037.14
2018-11-14T23:03:02.229Z,101036.47
2018-11-14T23:05:38.956Z,101032.82
2018-11-14T23:08:14.878Z,101037.24
2018-11-14T23:10:49.393Z,101044.52
2018-11-14T23:13:22.894Z,101039.70
2018-11-14T23:15:59.352Z,101041.94
2018-11-14T23:18:33.057Z,101037.42
2018-11-14T23:21:07.021Z,101030.30
2018-11-14T23:23:41.511Z,101041.24
2018-11-14T23:26:15.839Z,101039.47
2018-11-14T23:28:51.557Z,101036.05
2018-11-14T23:31:26.661Z,101037.80
2018-11-14T23:34:04.021Z,101033.72
2018-11-14T23:36:37.370Z,101027.23
2018-11-14T23:39:12.669Z,101028.33
2018-11-14T23:41:48.432Z,101028.00
2018-11-14T23:44:23.311Z,101029.50
2018-11-14T23:46:56.045Z,101021.06
2018-11-14T23:49:31.260Z,101020.03
2018-11-14T23:52:06.233Z,101027.45
2018-11-14T23:54:40.180Z,101033.27
2018-11-14T23:57:13.677Z,101031.09
2018-11-14T23:59:46.361Z,101031.03
